»·PEaware :: N1JG KGJT-KABQ

N1JG :: KGJT-KABQ

FLIGHT INFORMATION

Flight Status: Arrived
Operator: Privately registered:
United States
More flights under this callsign
Pilot: Josh G. (4619)
Aircraft: Unknown
(SF50)
More flights by this aircraft type
Origin: KGJT Walker
United States
Destination: KABQ Albuquerque Intl Sunport
United States
More flights between these airports :: More routes between these airports
Route: +DRO ABQ
File this flight plan on PilotEdge
Remarks:
Altitude:
(Current/Filed)
28,000ft
Speed:
(Current/Filed)
290kts
Departed: 19-Oct-17 07:38 PM
Arrived: 19-Oct-17 08:42 PM
Distance/Time
Traveled:
262nm/1:03
Distance/Time
To Go:
Arrived

Flight Plot

Page will automatically refresh every two minutes.

Flight plan parsing failed; only flown route is shown


Map Options




Map Legend


Flown Route
Filed Route
Departure Airport
Arrival Airport
Navaid (VOR, NDB)
Fix

Horizontal Profiles

Position Reports

Time Latitude Longitude Heading Altitude Ground
Speed
19-Oct-17 19:32 39.119561 -108.521163 127 4804ft 0kts
19-Oct-17 19:33 39.119561 -108.521163 127 4804ft 0kts
19-Oct-17 19:34 39.119561 -108.521163 127 4804ft 0kts
19-Oct-17 19:35 39.119561 -108.521163 127 4804ft 0kts
19-Oct-17 19:36 39.119561 -108.521163 127 4804ft 0kts
19-Oct-17 19:37 39.119561 -108.521163 127 4804ft 0kts
19-Oct-17 19:38 39.119561 -108.521163 127 4804ft 0kts
19-Oct-17 19:39 39.119513 -108.521063 118 4804ft 3kts
19-Oct-17 19:40 39.119146 -108.517956 124 4803ft 12kts
19-Oct-17 19:41 39.118267 -108.516375 124 4803ft 0kts
19-Oct-17 19:42 39.118799 -108.514901 313 4804ft 16kts
19-Oct-17 19:43 39.132124 -108.542199 280 5297ft 132kts
19-Oct-17 19:44 39.140385 -108.605266 279 6797ft 195kts
19-Oct-17 19:45 39.141697 -108.676219 221 8810ft 210kts
19-Oct-17 19:46 39.087598 -108.664513 158 10828ft 211kts
19-Oct-17 19:47 39.032062 -108.637504 158 12727ft 215kts
19-Oct-17 19:48 38.983992 -108.613728 163 14955ft 193kts
19-Oct-17 19:49 38.945165 -108.594898 163 16231ft 195kts
19-Oct-17 19:50 38.886184 -108.566348 163 17982ft 200kts
19-Oct-17 19:51 38.842570 -108.545279 163 19183ft 204kts
19-Oct-17 19:52 38.789175 -108.519523 163 20536ft 207kts
19-Oct-17 19:53 38.725598 -108.488905 163 21997ft 212kts
19-Oct-17 19:54 38.679502 -108.466743 164 22964ft 214kts
19-Oct-17 19:55 38.623435 -108.439828 164 24048ft 218kts
19-Oct-17 19:56 38.566330 -108.412446 164 25059ft 221kts
19-Oct-17 19:57 38.508534 -108.384778 164 25997ft 224kts
19-Oct-17 19:58 38.450106 -108.356869 164 26866ft 227kts
19-Oct-17 19:59 38.389860 -108.328251 164 27035ft 253kts
19-Oct-17 20:00 38.321178 -108.295646 164 27077ft 274kts
19-Oct-17 20:01 38.248014 -108.260948 164 27075ft 288kts
19-Oct-17 20:02 38.171933 -108.224918 164 27095ft 294kts
19-Oct-17 20:03 38.096014 -108.189015 164 27144ft 288kts
19-Oct-17 20:04 38.021831 -108.154028 164 27235ft 291kts
19-Oct-17 20:05 37.945414 -108.118075 164 27234ft 296kts
19-Oct-17 20:06 37.870623 -108.082942 164 27240ft 299kts
19-Oct-17 20:07 37.793243 -108.046670 164 27239ft 301kts
19-Oct-17 20:08 37.714345 -108.009764 164 27239ft 303kts
19-Oct-17 20:09 37.635461 -107.972947 164 27238ft 303kts
19-Oct-17 20:10 37.556410 -107.936134 164 27238ft 304kts
19-Oct-17 20:11 37.477553 -107.899491 164 27237ft 304kts
19-Oct-17 20:12 37.398222 -107.862708 164 27237ft 304kts
19-Oct-17 20:13 37.318707 -107.825930 164 27129ft 306kts
19-Oct-17 20:14 37.239393 -107.789201 165 27127ft 303kts
19-Oct-17 20:15 37.161048 -107.753198 165 27127ft 301kts
19-Oct-17 20:16 37.082854 -107.717598 165 27127ft 299kts
19-Oct-17 20:17 37.010667 -107.684824 165 27126ft 299kts
19-Oct-17 20:18 36.932633 -107.649466 165 27126ft 299kts
19-Oct-17 20:19 36.860167 -107.616709 165 27134ft 299kts
19-Oct-17 20:20 36.782031 -107.581458 165 27134ft 301kts
19-Oct-17 20:21 36.705405 -107.547078 163 27136ft 304kts
19-Oct-17 20:22 36.625419 -107.511039 163 27132ft 308kts
19-Oct-17 20:23 36.544653 -107.474830 163 27131ft 310kts
19-Oct-17 20:24 36.463591 -107.438577 163 27131ft 311kts
19-Oct-17 20:25 36.382023 -107.402179 163 27106ft 313kts
19-Oct-17 20:26 36.300542 -107.365901 163 27130ft 312kts
19-Oct-17 20:27 36.221863 -107.330950 163 27126ft 312kts
19-Oct-17 20:28 36.140535 -107.294894 164 27179ft 311kts
19-Oct-17 20:29 36.058961 -107.258816 164 27180ft 312kts
19-Oct-17 20:30 35.975950 -107.222179 164 25816ft 318kts
19-Oct-17 20:31 35.899975 -107.188714 164 23972ft 310kts
19-Oct-17 20:32 35.820575 -107.153831 164 21918ft 301kts
19-Oct-17 20:33 35.743105 -107.119859 164 19944ft 293kts
19-Oct-17 20:34 35.667621 -107.086824 163 17873ft 285kts
19-Oct-17 20:35 35.594274 -107.054989 161 15743ft 276kts
19-Oct-17 20:36 35.526992 -107.016962 143 13839ft 264kts
19-Oct-17 20:37 35.472115 -106.966449 142 13146ft 220kts
19-Oct-17 20:38 35.419592 -106.917978 142 12507ft 261kts
19-Oct-17 20:39 35.360088 -106.863175 142 11220ft 270kts
19-Oct-17 20:40 35.300001 -106.807941 142 9919ft 271kts
19-Oct-17 20:41 35.240707 -106.753536 142 8972ft 252kts
19-Oct-17 20:42 35.187719 -106.704935 143 8969ft 229kts
19-Oct-17 20:43 35.151224 -106.642811 122 8563ft 228kts
19-Oct-17 20:44 35.118636 -106.581350 136 7964ft 190kts
19-Oct-17 20:45 35.071622 -106.570222 218 6840ft 145kts
19-Oct-17 20:46 35.051541 -106.595534 219 5592ft 97kts
19-Oct-17 20:47 35.036053 -106.613898 231 5313ft 10kts
19-Oct-17 20:48 35.036289 -106.615922 254 5313ft 15kts
19-Oct-17 20:49 35.037162 -106.616197 36 5313ft 0kts
19-Oct-17 20:50 35.037162 -106.616197 36 5313ft 0kts
19-Oct-17 20:51 35.037162 -106.616197 36 5313ft 0kts
19-Oct-17 20:52 35.037162 -106.616197 36 5313ft 0kts
19-Oct-17 20:53 35.037162 -106.616197 36 5313ft 0kts
19-Oct-17 20:54 35.037162 -106.616197 36 5313ft 0kts
19-Oct-17 20:55 35.037162 -106.616197 36 5313ft 0kts

Navigation Log

Ident Type
Flight plan parsing failed, navigation log unavailable